Aeroporto :
LOGIN :

Iscrizione | Disclaimer

   EN    FR    IT 

 










Sommario :    VFR   VFR Marginale   IFR   IFR Intensivo   IFR Molto Intensivo
Visibilità : 
Base nubi : 
>= 8 km
>= 3000ft
5 / 8 km
1000 / 3000 ft
1500m / 5 km
500 / 1000 ft
800 / 1500m
200 / 500 ft
< 800m
< 200 ft
Simboli :   Temporali  Nebbia  Neve Forte  Precipitazioni Forti  Vento > 20 kt
SIGMETs :   Varie  Temporali  Ghiacco  Turbolenza  Onda orograficha  Ceneri Vulcaniche







- Altitudine del aeroporto : 405 ft
- Codice IATA : JMK


LGMK - Mikonos

ULTIMO METAR :
  • 201620Z 34016KT 9999 FEW018 26/16 Q1014

METARs OBSOLETI :
  • 201550Z 34016KT 9999 FEW018 26/16 Q1014
  • 201520Z 34022KT 9999 FEW018 27/14 Q1014
  • 201450Z 34022KT 9999 FEW018 27/14 Q1014
  • 201420Z 35018KT 9999 FEW018 27/14 Q1014
  • 201350Z 35018KT 9999 FEW018 27/14 Q1014

TAF TAF LGMK
Valido dal 20 a 15 ore il 21 a 00 ore UTC


201400Z 2015/2024 36024KT 9999 FEW015
TEMPO 2015/2019 36024G34KT
Nessun NOTAM noto per questo aeroporto.



MetMap, La meteo Aeronautica in un colpo d'occhio ! - Copyright ORBIFLY Dicembre 2007 - Disclaimer

ORBIFLY MET'MAP TEAM :

Programmazione e sviluppo : Alexandra Zaïnal
Concezione e sviluppo : Baudouin d'Aumeries
Co-Programmazione e sviluppo : Marc-Olivier Méhu
Supporto tecnico e logistico : Manuel Goepfert
Aiuto per la traduzione : Arnaldo La Scala

Contatto : metmap@orbifly.com




FONTI E CREDITI :

   NOAA